Little Neck, NY (11363)

11:00 AM EDT on July 30, 2016 (GMT -0400)
Oakland Gardens | | Change Station

Elev 95 ft 40.75 °N, 73.75 °W | Updated 28 seconds ago

Mostly Cloudy
Mostly Cloudy
84.1 °F
Feels Like 91 °F
N
1.8
Wind Variable Wind from South
Gusts 3.0 mph

Today
High -- | Low -- °F
--% Chance of Precip.
Yesterday
High -- | Low -- °F
Precip. -- in
Pressure 30.01 in
Visibility 10.0 miles
Clouds Few 2500 ft
Mostly Cloudy 10000 ft
Mostly Cloudy 26000 ft
Heat Index 91 °F
Dew Point 73 °F
Humidity 70%
Rainfall 0.00 in
Snow Depth Not available.
5:50 AM 8:12 PM
Waning Crescent, 13% visible
METAR KLGA 301451Z 05008KT 10SM FEW025 BKN100 BKN260 26/21 A3001 RMK AO2 SLP162 T02560206 51006
Pressure 30.01 in
Visibility 10.0 miles
Clouds Few 2500 ft
Mostly Cloudy 10000 ft
Mostly Cloudy 26000 ft
Heat Index 91 °F
Dew Point 73 °F
Humidity 70%
Rainfall 0.00 in
Snow Depth Not available.
5:50 AM 8:12 PM
Waning Crescent, 13% visible
METAR KLGA 301451Z 05008KT 10SM FEW025 BKN100 BKN260 26/21 A3001 RMK AO2 SLP162 T02560206 51006

10-Day Weather Forecast

Almanac

Astronomy

Jul. 30, 2016 Rise Set
Actual Time
Civil Twilight
Nautical Twilight
Astronomical Twilight
Moon
Length of Visible Light
Length of Day
Tomorrow will be .
, % of the Moon is Illuminated

Today's Extremes

State Highs State Lows

Community

WunderPhotos

Upload Photos

1,928,565 photos uploaded!

WunderBlog® & News

Nearby

Air Quality

  Air Quality AQ Index Pollutant
Not available.

Snow Depth

Station Depth Elevation

Earthquake Activity

City Distance Mag. Time & Date
Minimum magnitude displayed is 2.5.

Coastal Water Temperatures

Place Temperature

Stations

Nearby Weather Stations

Station Location Temp. Windchill Dew Point Humidity Wind Precip. Elev Updated Type
                   

Watches & Warnings

There are currently no watches in effect.